createdAt,value
2023-02-28T00:19:56.509Z,-0.2
2023-02-28T00:48:43.811Z,-0.54
2023-02-28T01:17:35.563Z,-0.54
2023-02-28T01:45:41.300Z,-0.49
2023-02-28T02:14:20.234Z,-0.63
2023-02-28T02:42:51.534Z,-0.63
2023-02-28T03:11:49.505Z,-0.64
2023-02-28T03:40:44.643Z,-0.79
2023-02-28T04:09:27.548Z,-0.83
2023-02-28T04:38:22.197Z,-1.02
2023-02-28T05:07:17.813Z,-1.06
2023-02-28T05:36:02.603Z,-1.44
2023-02-28T06:04:44.778Z,-1.55
2023-02-28T06:33:17.152Z,-1.34
2023-02-28T07:02:08.021Z,-1.1
2023-02-28T07:30:54.261Z,-1.05
2023-02-28T07:59:14.721Z,-0.62
2023-02-28T08:28:04.820Z,-0.34
2023-02-28T08:56:55.582Z,-0.12
2023-02-28T09:25:41.939Z,0.07
2023-02-28T09:54:02.490Z,0.41
2023-02-28T10:22:21.811Z,0.7
2023-02-28T10:51:12.361Z,1.36
2023-02-28T11:20:08.167Z,1.8
2023-02-28T11:48:50.556Z,2.12
2023-02-28T12:17:36.440Z,2.79
2023-02-28T12:46:17.993Z,3.7
2023-02-28T13:14:35.106Z,4.13
2023-02-28T13:43:11.927Z,4.44
2023-02-28T14:11:38.756Z,4.89
2023-02-28T14:39:52.138Z,4.88
2023-02-28T15:08:30.213Z,4.95
2023-02-28T15:36:51.817Z,5.15
2023-02-28T16:05:46.996Z,5.18
2023-02-28T16:34:13.181Z,4.77
2023-02-28T17:02:43.805Z,4.12
2023-02-28T17:31:00.304Z,3.13
2023-02-28T18:28:37.989Z,2.19
2023-02-28T18:57:13.104Z,1.99
2023-02-28T19:25:39.978Z,1.61
2023-02-28T19:54:26.399Z,1.41
2023-02-28T20:22:52.905Z,1.34
2023-02-28T20:53:42.362Z,1.06
2023-02-28T21:22:21.087Z,0.75
2023-02-28T21:51:10.944Z,0.46
2023-02-28T22:20:09.831Z,0.34
2023-02-28T22:49:02.114Z,0.37
2023-02-28T23:18:11.645Z,-0.06
